San Juan Enterprise — WDD9563 — position and weather

sailwx.info

Track history (hours):
 
Tides and Currents Weather Stations Pressure Air Temp Water Temp Dewpoint Dewpoint Depression Visibility Wind Speed Wind Dir Waves Ship Positions

San Juan Enterprise

More information available from US FCC via Universal Licensing System and Coast Guard Vessel Documentation Center.

Last reported at 2014-Sep-30 23:33 UTC. Time now 2014-Oct-01 00:09 UTC.
Position N 48°31' W 122°36'.

Length 30 m.

MMSI: 367313160.

Date/timePositionNaut miles runAvg speedWind from/ knotsBaromVisibWave heightAir tempDewpointWater temp
2014-Sep-30 23:33N 48°31' W 122°36'0 0.4
2014-Sep-30 22:33N 48°31' W 122°37'5 4.7
2014-Sep-30 21:33N 48°32' W 122°44'8 7.7
2014-Sep-30 20:33N 48°33' W 122°55'3 3.4
2014-Sep-30 19:33N 48°32' W 123°00'0 0.0
2014-Sep-30 18:33N 48°32' W 123°00'3 3.0
2014-Sep-30 17:33N 48°33' W 122°56'8 7.8
2014-Sep-30 16:33N 48°31' W 122°45'5 5.5
2014-Sep-30 15:33N 48°31' W 122°36'0 0.0
2014-Sep-30 14:32N 48°31' W 122°36'0 0.0
2014-Sep-30 13:32N 48°31' W 122°36'0 0.0
2014-Sep-30 12:32N 48°31' W 122°36'0 0.0
2014-Sep-30 11:32N 48°31' W 122°36'0 0.0
2014-Sep-30 10:32N 48°31' W 122°36'0 0.0
2014-Sep-30 09:32N 48°31' W 122°36'0 0.0
2014-Sep-30 08:32N 48°31' W 122°36'0 0.0
2014-Sep-30 07:32N 48°31' W 122°36'0 0.0
2014-Sep-30 06:32N 48°31' W 122°36'0 0.0
2014-Sep-30 05:32N 48°31' W 122°36'4 4.2
2014-Sep-30 04:33N 48°29' W 122°32'7 6.6
2014-Sep-30 03:32N 48°22' W 122°34'2 2.3
2014-Sep-30 02:28N 48°25' W 122°34'0 0.0
2014-Sep-30 01:33N 48°25' W 122°34'1 0.6
2014-Sep-30 00:06N 48°25' W 122°35'4 8.2
2014-Sep-29 23:33N 48°26' W 122°41'6 6.0
2014-Sep-29 22:33N 48°31' W 122°37'0 0.0
2014-Sep-29 21:33N 48°31' W 122°37'0 0.4
2014-Sep-29 20:33N 48°31' W 122°36'7 7.2
2014-Sep-29 19:33N 48°34' W 122°46'2 2.5
2014-Sep-29 18:33N 48°36' W 122°49'1 0.7
2014-Sep-29 17:33N 48°35' W 122°49'2 1.6
2014-Sep-29 16:33N 48°35' W 122°47'8 7.6
2014-Sep-29 15:33N 48°31' W 122°36'1 0.9
2014-Sep-29 14:33N 48°32' W 122°38'1 0.8
2014-Sep-29 13:32N 48°31' W 122°36'0 0.0
2014-Sep-29 12:29N 48°31' W 122°36'0 0.0
2014-Sep-29 11:32N 48°31' W 122°36'0 0.0
2014-Sep-29 10:29N 48°31' W 122°36'0 0.0
2014-Sep-29 09:29N 48°31' W 122°36'0 0.0
2014-Sep-29 08:29N 48°31' W 122°36'0 0.0
2014-Sep-29 07:29N 48°31' W 122°36'0 0.0
2014-Sep-29 06:29N 48°31' W 122°36'0 0.0
2014-Sep-29 05:29N 48°31' W 122°36'0 0.0
2014-Sep-29 04:29N 48°31' W 122°36'0 0.0
2014-Sep-29 03:29N 48°31' W 122°36'0 0.0
2014-Sep-29 02:29N 48°31' W 122°36'0 0.0
2014-Sep-29 01:32N 48°31' W 122°36'0 0.0
2014-Sep-29 00:32N 48°31' W 122°36'0 0.0
2014-Sep-28 23:29N 48°31' W 122°36'0 0.0
2014-Sep-28 22:29N 48°31' W 122°36'0 0.0
2014-Sep-28 21:29N 48°31' W 122°36'0 0.0
2014-Sep-28 20:29N 48°31' W 122°36'0 0.0
2014-Sep-28 19:33N 48°31' W 122°36'0 0.0
2014-Sep-28 18:33N 48°31' W 122°36'0 0.0
2014-Sep-28 17:33N 48°31' W 122°36'0 0.0
2014-Sep-28 16:33N 48°31' W 122°36'0 0.0
2014-Sep-28 15:33N 48°31' W 122°36'0 0.0
2014-Sep-28 14:33N 48°31' W 122°36'0 0.0
2014-Sep-28 13:33N 48°31' W 122°36'0 0.0
2014-Sep-28 12:33N 48°31' W 122°36'0 0.0
2014-Sep-28 11:33N 48°31' W 122°36'0 0.0
2014-Sep-28 10:33N 48°31' W 122°36'0 0.0
2014-Sep-28 09:33N 48°31' W 122°36'0 0.0
2014-Sep-28 08:30N 48°31' W 122°36'0 0.0
2014-Sep-28 07:33N 48°31' W 122°36'0 0.0
2014-Sep-28 06:33N 48°31' W 122°36'0 0.0
2014-Sep-28 05:33N 48°31' W 122°36'0 0.0
2014-Sep-28 04:33N 48°31' W 122°36'0 0.0
2014-Sep-28 03:33N 48°31' W 122°36'0 0.0
2014-Sep-28 02:33N 48°31' W 122°36'0 0.0
2014-Sep-28 01:33N 48°31' W 122°36'0 0.0
2014-Sep-28 00:30N 48°31' W 122°36'0 0.0
2014-Sep-27 23:30N 48°31' W 122°36'0 0.0
2014-Sep-27 22:30N 48°31' W 122°36'0 0.0
2014-Sep-27 21:33N 48°31' W 122°36'0 0.0
2014-Sep-27 20:31N 48°31' W 122°36'0 0.0
2014-Sep-27 19:28N 48°31' W 122°36'0 0.0
2014-Sep-27 18:28N 48°31' W 122°36'0 0.0
2014-Sep-27 17:31N 48°31' W 122°36'0 0.0
2014-Sep-27 16:28N 48°31' W 122°36'0 0.0
2014-Sep-27 15:28N 48°31' W 122°36'0 0.0
2014-Sep-27 14:28N 48°31' W 122°36'0 0.0
2014-Sep-27 13:28N 48°31' W 122°36'0 0.0
2014-Sep-27 12:28N 48°31' W 122°36'0 0.0
2014-Sep-27 11:28N 48°31' W 122°36'0 0.0
2014-Sep-27 10:28N 48°31' W 122°36'0 0.0
2014-Sep-27 09:28N 48°31' W 122°36'0 0.0
2014-Sep-27 08:28N 48°31' W 122°36'0 0.0
2014-Sep-27 07:28N 48°31' W 122°36'0 0.0
2014-Sep-27 06:28N 48°31' W 122°36'0 0.0
2014-Sep-27 05:28N 48°31' W 122°36'0 0.0
2014-Sep-27 04:28N 48°31' W 122°36'0 0.0
2014-Sep-27 03:33N 48°31' W 122°36'0 0.0
2014-Sep-27 02:18N 48°31' W 122°36'0 0.0
2014-Sep-27 01:30N 48°31' W 122°36'0 0.0
2014-Sep-27 00:30N 48°31' W 122°36'1 0.5
2014-Sep-26 23:33N 48°32' W 122°37'1 0.5
2014-Sep-26 22:33N 48°31' W 122°36'0 0.0
2014-Sep-26 21:33N 48°31' W 122°36'2 2.0
2014-Sep-26 20:33N 48°32' W 122°39'2 1.9
2014-Sep-26 19:33N 48°33' W 122°41'2 1.8
2014-Sep-26 18:33N 48°32' W 122°39'2 1.7
2014-Sep-26 17:33N 48°31' W 122°37'0 0.0
2014-Sep-26 16:33N 48°31' W 122°37'0 0.3
2014-Sep-26 15:31N 48°31' W 122°36'0 0.0
2014-Sep-26 14:31N 48°31' W 122°36'0 0.0
2014-Sep-26 13:31N 48°31' W 122°36'0 0.0
2014-Sep-26 12:31N 48°31' W 122°36'0 0.0
2014-Sep-26 11:31N 48°31' W 122°36'0 0.0
2014-Sep-26 10:31N 48°31' W 122°36'0 0.0
2014-Sep-26 09:31N 48°31' W 122°36'0 0.0
2014-Sep-26 08:31N 48°31' W 122°36'0 0.0
2014-Sep-26 07:25N 48°31' W 122°36'0 0.0
2014-Sep-26 06:31N 48°31' W 122°36'0 0.0
2014-Sep-26 05:33N 48°31' W 122°36'7 7.3
2014-Sep-26 04:33N 48°25' W 122°30'6 6.3
2014-Sep-26 03:33N 48°19' W 122°30'10 8.9
2014-Sep-26 02:28N 48°09' W 122°32'9 9.3
2014-Sep-26 01:33N 48°03' W 122°23'7 7.0
2014-Sep-26 00:33N 48°00' W 122°13'1 1.9
2014-Sep-25 23:49N 47°59' W 122°15'3 9.0
2014-Sep-25 23:32N 48°01' W 122°18'3 3.2
2014-Sep-25 22:33N 48°00' W 122°13'4 3.8
2014-Sep-25 21:33N 48°01' W 122°19'0 0.2
2014-Sep-25 20:33N 48°01' W 122°19'3 3.6
2014-Sep-25 19:38N 47°60' W 122°15'1 9.8
2014-Sep-25 19:33N 47°59' W 122°14'1 1.2
2014-Sep-25 18:33N 48°00' W 122°13'1 1.2
2014-Sep-25 17:33N 47°59' W 122°14'4 4.0
2014-Sep-25 16:32N 48°01' W 122°19'2 2.2
2014-Sep-25 15:33N 48°00' W 122°17'031.7
2014-Sep-25 15:32N 48°00' W 122°17'2 1.9
2014-Sep-25 14:28N 48°00' W 122°13'0 0.0
2014-Sep-25 13:22N 48°00' W 122°13'0 0.0
2014-Sep-25 12:31N 48°00' W 122°13'0 0.0
2014-Sep-25 11:25N 48°00' W 122°13'0 0.0
2014-Sep-25 10:31N 48°00' W 122°13'0 0.0
2014-Sep-25 09:25N 48°00' W 122°13'0 0.0
2014-Sep-25 08:31N 48°00' W 122°13'0 0.0
2014-Sep-25 07:25N 48°00' W 122°13'0 0.0
2014-Sep-25 05:28N 48°00' W 122°13'0 0.0
2014-Sep-25 04:28N 48°00' W 122°13'0 0.0
2014-Sep-25 03:28N 48°00' W 122°13'0 0.0
2014-Sep-25 02:28N 48°00' W 122°13'0 0.0
2014-Sep-25 01:33N 48°00' W 122°13'1 1.3
2014-Sep-25 00:33N 47°59' W 122°15'3 4.0
2014-Sep-24 23:43N 48°01' W 122°19'0 0.0
2014-Sep-24 23:33N 48°01' W 122°19'4 4.1
2014-Sep-24 22:33N 48°00' W 122°13'4 4.1
2014-Sep-24 21:33N 48°01' W 122°19'0 0.0
2014-Sep-24 20:33N 48°01' W 122°19'2 1.8
2014-Sep-24 19:32N 48°00' W 122°17'2 2.5
2014-Sep-24 18:33N 48°00' W 122°13'4 3.5
2014-Sep-24 17:32N 48°01' W 122°19'0 0.5
2014-Sep-24 16:26N 48°01' W 122°19'3 3.5
2014-Sep-24 15:33N 47°60' W 122°15'1 1.4
2014-Sep-24 14:32N 48°00' W 122°13'0 0.0
2014-Sep-24 13:32N 48°00' W 122°13'0 0.0
2014-Sep-24 12:32N 48°00' W 122°13'0 0.0
2014-Sep-24 11:32N 48°00' W 122°13'0 0.0
2014-Sep-24 10:32N 48°00' W 122°13'0 0.0
2014-Sep-24 09:32N 48°00' W 122°13'0 0.0
2014-Sep-24 08:32N 48°00' W 122°13'0 0.0
2014-Sep-24 07:32N 48°00' W 122°13'0 0.0
2014-Sep-24 06:32N 48°00' W 122°13'0 0.0
2014-Sep-24 05:32N 48°00' W 122°13'5 4.2
2014-Sep-24 04:23N 48°02' W 122°20'8 8.6
2014-Sep-24 03:25N 48°07' W 122°30'10 8.2
2014-Sep-24 02:11N 48°17' W 122°31'5 7.3
2014-Sep-24 01:31N 48°22' W 122°33'6 5.5
2014-Sep-24 00:31N 48°27' W 122°31'6 5.8
2014-Sep-23 23:33N 48°31' W 122°36'0 0.0
2014-Sep-23 22:33N 48°31' W 122°36'0 0.0
2014-Sep-23 21:33N 48°31' W 122°36'3 2.6
2014-Sep-23 20:33N 48°32' W 122°40'8 8.3
2014-Sep-23 19:33N 48°34' W 122°52'6 5.7
2014-Sep-23 18:33N 48°32' W 122°60'0 0.0
2014-Sep-23 17:33N 48°32' W 122°60'3 2.6
2014-Sep-23 16:33N 48°32' W 122°56'7 7.0
2014-Sep-23 15:32N 48°32' W 122°46'6 5.9
2014-Sep-23 14:30N 48°31' W 122°36'0 0.0
2014-Sep-23 13:30N 48°31' W 122°36'0 0.0
2014-Sep-23 12:30N 48°31' W 122°36'0 0.0
2014-Sep-23 11:30N 48°31' W 122°36'0 0.0
2014-Sep-23 10:30N 48°31' W 122°36'0 0.0
2014-Sep-23 09:30N 48°31' W 122°36'0 0.0
2014-Sep-23 08:30N 48°31' W 122°36'0 0.0
2014-Sep-23 07:30N 48°31' W 122°36'0 0.0
2014-Sep-23 06:30N 48°31' W 122°36'0 0.0
2014-Sep-23 05:33N 48°31' W 122°36'0 0.0
2014-Sep-23 04:33N 48°31' W 122°36'0 0.0
2014-Sep-23 03:18N 48°31' W 122°36'0 0.0
2014-Sep-23 02:30N 48°31' W 122°36'0 0.0
2014-Sep-23 01:30N 48°31' W 122°36'0 0.0
2014-Sep-23 00:30N 48°31' W 122°36'0 0.0
2014-Sep-22 23:30N 48°31' W 122°36'0 0.0
2014-Sep-22 22:30N 48°31' W 122°36'1 0.6
2014-Sep-22 21:32N 48°31' W 122°36'1 0.6
2014-Sep-22 20:34N 48°31' W 122°36'6 6.1
2014-Sep-22 19:34N 48°33' W 122°45'3 3.3
2014-Sep-22 18:33N 48°35' W 122°49'0 0.0
2014-Sep-22 17:33N 48°35' W 122°49'0 0.3
2014-Sep-22 16:34N 48°35' W 122°49'5 5.4
2014-Sep-22 15:33N 48°32' W 122°43'4 3.7
2014-Sep-22 14:23N 48°31' W 122°36'0 0.0
2014-Sep-22 13:29N 48°31' W 122°36'0 0.0
2014-Sep-22 12:23N 48°31' W 122°36'0 0.0
2014-Sep-22 11:29N 48°31' W 122°36'0 0.0
2014-Sep-22 10:29N 48°31' W 122°36'0 0.0
2014-Sep-22 09:17N 48°31' W 122°36'0 0.0
2014-Sep-22 08:23N 48°31' W 122°36'0 0.0
2014-Sep-22 07:29N 48°31' W 122°36'0 0.0
2014-Sep-22 06:29N 48°31' W 122°36'0 0.0
2014-Sep-22 05:29N 48°31' W 122°36'0 0.0
2014-Sep-22 04:29N 48°31' W 122°36'0 0.0
2014-Sep-22 03:29N 48°31' W 122°36'0 0.0
2014-Sep-22 02:29N 48°31' W 122°36'0 0.0
2014-Sep-22 01:29N 48°31' W 122°36'0 0.0
2014-Sep-22 00:29N 48°31' W 122°36'0 0.0
2014-Sep-21 23:23N 48°31' W 122°36'0 0.0
2014-Sep-21 22:29N 48°31' W 122°36'0 0.0
2014-Sep-21 21:29N 48°31' W 122°36'0 0.0
2014-Sep-21 20:32N 48°31' W 122°36'0 0.0
2014-Sep-21 19:23N 48°31' W 122°36'0 0.0
2014-Sep-21 18:32N 48°31' W 122°36'0 0.0
2014-Sep-21 17:29N 48°31' W 122°36'0 0.0
2014-Sep-21 16:32N 48°31' W 122°36'0 0.0
2014-Sep-21 15:29N 48°31' W 122°36'0 0.0
2014-Sep-21 14:32N 48°31' W 122°36'0 0.0
2014-Sep-21 13:32N 48°31' W 122°36'0 0.0
2014-Sep-21 12:29N 48°31' W 122°36'0 0.0
2014-Sep-21 11:29N 48°31' W 122°36'0 0.0
2014-Sep-21 10:32N 48°31' W 122°36'0 0.0
2014-Sep-21 09:29N 48°31' W 122°36'0 0.0
2014-Sep-21 08:29N 48°31' W 122°36'0 0.0
2014-Sep-21 07:29N 48°31' W 122°36'0 0.0
2014-Sep-21 06:29N 48°31' W 122°36'0 0.0
2014-Sep-21 05:32N 48°31' W 122°36'0 0.0
2014-Sep-21 04:32N 48°31' W 122°36'0 0.0
2014-Sep-21 03:32N 48°31' W 122°36'0 0.0
2014-Sep-21 02:32N 48°31' W 122°36'0 0.0
2014-Sep-21 01:32N 48°31' W 122°36'0 0.0
2014-Sep-21 00:29N 48°31' W 122°36'  
Track history (hours):
 
Tides and Currents Weather Stations Pressure Air Temp Water Temp Dewpoint Dewpoint Depression Visibility Wind Speed Wind Dir Waves Ship Positions

San Juan Enterprise

More information available from US FCC via Universal Licensing System and Coast Guard Vessel Documentation Center.

Last reported at 2014-Sep-30 23:33 UTC. Time now 2014-Oct-01 00:09 UTC.
Position N 48°31' W 122°36'.

Length 30 m.

MMSI: 367313160.

Date/timePositionNaut miles runAvg speedWind from/ knotsBaromVisibWave heightAir tempDewpointWater temp
2014-Sep-30 23:33N 48°31' W 122°36'0 0.4
2014-Sep-30 22:33N 48°31' W 122°37'5 4.7
2014-Sep-30 21:33N 48°32' W 122°44'8 7.7
2014-Sep-30 20:33N 48°33' W 122°55'3 3.4
2014-Sep-30 19:33N 48°32' W 123°00'0 0.0
2014-Sep-30 18:33N 48°32' W 123°00'3 3.0
2014-Sep-30 17:33N 48°33' W 122°56'8 7.8
2014-Sep-30 16:33N 48°31' W 122°45'5 5.5
2014-Sep-30 15:33N 48°31' W 122°36'0 0.0
2014-Sep-30 14:32N 48°31' W 122°36'0 0.0
2014-Sep-30 13:32N 48°31' W 122°36'0 0.0
2014-Sep-30 12:32N 48°31' W 122°36'0 0.0
2014-Sep-30 11:32N 48°31' W 122°36'0 0.0
2014-Sep-30 10:32N 48°31' W 122°36'0 0.0
2014-Sep-30 09:32N 48°31' W 122°36'0 0.0
2014-Sep-30 08:32N 48°31' W 122°36'0 0.0
2014-Sep-30 07:32N 48°31' W 122°36'0 0.0
2014-Sep-30 06:32N 48°31' W 122°36'0 0.0
2014-Sep-30 05:32N 48°31' W 122°36'4 4.2
2014-Sep-30 04:33N 48°29' W 122°32'7 6.6
2014-Sep-30 03:32N 48°22' W 122°34'2 2.3
2014-Sep-30 02:28N 48°25' W 122°34'0 0.0
2014-Sep-30 01:33N 48°25' W 122°34'1 0.6
2014-Sep-30 00:06N 48°25' W 122°35'4 8.2
2014-Sep-29 23:33N 48°26' W 122°41'6 6.0
2014-Sep-29 22:33N 48°31' W 122°37'0 0.0
2014-Sep-29 21:33N 48°31' W 122°37'0 0.4
2014-Sep-29 20:33N 48°31' W 122°36'7 7.2
2014-Sep-29 19:33N 48°34' W 122°46'2 2.5
2014-Sep-29 18:33N 48°36' W 122°49'1 0.7
2014-Sep-29 17:33N 48°35' W 122°49'2 1.6
2014-Sep-29 16:33N 48°35' W 122°47'8 7.6
2014-Sep-29 15:33N 48°31' W 122°36'1 0.9
2014-Sep-29 14:33N 48°32' W 122°38'1 0.8
2014-Sep-29 13:32N 48°31' W 122°36'0 0.0
2014-Sep-29 12:29N 48°31' W 122°36'0 0.0
2014-Sep-29 11:32N 48°31' W 122°36'0 0.0
2014-Sep-29 10:29N 48°31' W 122°36'0 0.0
2014-Sep-29 09:29N 48°31' W 122°36'0 0.0
2014-Sep-29 08:29N 48°31' W 122°36'0 0.0
2014-Sep-29 07:29N 48°31' W 122°36'0 0.0
2014-Sep-29 06:29N 48°31' W 122°36'0 0.0
2014-Sep-29 05:29N 48°31' W 122°36'0 0.0
2014-Sep-29 04:29N 48°31' W 122°36'0 0.0
2014-Sep-29 03:29N 48°31' W 122°36'0 0.0
2014-Sep-29 02:29N 48°31' W 122°36'0 0.0
2014-Sep-29 01:32N 48°31' W 122°36'0 0.0
2014-Sep-29 00:32N 48°31' W 122°36'0 0.0
2014-Sep-28 23:29N 48°31' W 122°36'0 0.0
2014-Sep-28 22:29N 48°31' W 122°36'0 0.0
2014-Sep-28 21:29N 48°31' W 122°36'0 0.0
2014-Sep-28 20:29N 48°31' W 122°36'0 0.0
2014-Sep-28 19:33N 48°31' W 122°36'0 0.0
2014-Sep-28 18:33N 48°31' W 122°36'0 0.0
2014-Sep-28 17:33N 48°31' W 122°36'0 0.0
2014-Sep-28 16:33N 48°31' W 122°36'0 0.0
2014-Sep-28 15:33N 48°31' W 122°36'0 0.0
2014-Sep-28 14:33N 48°31' W 122°36'0 0.0
2014-Sep-28 13:33N 48°31' W 122°36'0 0.0
2014-Sep-28 12:33N 48°31' W 122°36'0 0.0
2014-Sep-28 11:33N 48°31' W 122°36'0 0.0
2014-Sep-28 10:33N 48°31' W 122°36'0 0.0
2014-Sep-28 09:33N 48°31' W 122°36'0 0.0
2014-Sep-28 08:30N 48°31' W 122°36'0 0.0
2014-Sep-28 07:33N 48°31' W 122°36'0 0.0
2014-Sep-28 06:33N 48°31' W 122°36'0 0.0
2014-Sep-28 05:33N 48°31' W 122°36'0 0.0
2014-Sep-28 04:33N 48°31' W 122°36'0 0.0
2014-Sep-28 03:33N 48°31' W 122°36'0 0.0
2014-Sep-28 02:33N 48°31' W 122°36'0 0.0
2014-Sep-28 01:33N 48°31' W 122°36'0 0.0
2014-Sep-28 00:30N 48°31' W 122°36'0 0.0
2014-Sep-27 23:30N 48°31' W 122°36'0 0.0
2014-Sep-27 22:30N 48°31' W 122°36'0 0.0
2014-Sep-27 21:33N 48°31' W 122°36'0 0.0
2014-Sep-27 20:31N 48°31' W 122°36'0 0.0
2014-Sep-27 19:28N 48°31' W 122°36'0 0.0
2014-Sep-27 18:28N 48°31' W 122°36'0 0.0
2014-Sep-27 17:31N 48°31' W 122°36'0 0.0
2014-Sep-27 16:28N 48°31' W 122°36'0 0.0
2014-Sep-27 15:28N 48°31' W 122°36'0 0.0
2014-Sep-27 14:28N 48°31' W 122°36'0 0.0
2014-Sep-27 13:28N 48°31' W 122°36'0 0.0
2014-Sep-27 12:28N 48°31' W 122°36'0 0.0
2014-Sep-27 11:28N 48°31' W 122°36'0 0.0
2014-Sep-27 10:28N 48°31' W 122°36'0 0.0
2014-Sep-27 09:28N 48°31' W 122°36'0 0.0
2014-Sep-27 08:28N 48°31' W 122°36'0 0.0
2014-Sep-27 07:28N 48°31' W 122°36'0 0.0
2014-Sep-27 06:28N 48°31' W 122°36'0 0.0
2014-Sep-27 05:28N 48°31' W 122°36'0 0.0
2014-Sep-27 04:28N 48°31' W 122°36'0 0.0
2014-Sep-27 03:33N 48°31' W 122°36'0 0.0
2014-Sep-27 02:18N 48°31' W 122°36'0 0.0
2014-Sep-27 01:30N 48°31' W 122°36'0 0.0
2014-Sep-27 00:30N 48°31' W 122°36'1 0.5
2014-Sep-26 23:33N 48°32' W 122°37'1 0.5
2014-Sep-26 22:33N 48°31' W 122°36'0 0.0
2014-Sep-26 21:33N 48°31' W 122°36'2 2.0
2014-Sep-26 20:33N 48°32' W 122°39'2 1.9
2014-Sep-26 19:33N 48°33' W 122°41'2 1.8
2014-Sep-26 18:33N 48°32' W 122°39'2 1.7
2014-Sep-26 17:33N 48°31' W 122°37'0 0.0
2014-Sep-26 16:33N 48°31' W 122°37'0 0.3
2014-Sep-26 15:31N 48°31' W 122°36'0 0.0
2014-Sep-26 14:31N 48°31' W 122°36'0 0.0
2014-Sep-26 13:31N 48°31' W 122°36'0 0.0
2014-Sep-26 12:31N 48°31' W 122°36'0 0.0
2014-Sep-26 11:31N 48°31' W 122°36'0 0.0
2014-Sep-26 10:31N 48°31' W 122°36'0 0.0
2014-Sep-26 09:31N 48°31' W 122°36'0 0.0
2014-Sep-26 08:31N 48°31' W 122°36'0 0.0
2014-Sep-26 07:25N 48°31' W 122°36'0 0.0
2014-Sep-26 06:31N 48°31' W 122°36'0 0.0
2014-Sep-26 05:33N 48°31' W 122°36'7 7.3
2014-Sep-26 04:33N 48°25' W 122°30'6 6.3
2014-Sep-26 03:33N 48°19' W 122°30'10 8.9
2014-Sep-26 02:28N 48°09' W 122°32'9 9.3
2014-Sep-26 01:33N 48°03' W 122°23'7 7.0
2014-Sep-26 00:33N 48°00' W 122°13'1 1.9
2014-Sep-25 23:49N 47°59' W 122°15'3 9.0
2014-Sep-25 23:32N 48°01' W 122°18'3 3.2
2014-Sep-25 22:33N 48°00' W 122°13'4 3.8
2014-Sep-25 21:33N 48°01' W 122°19'0 0.2
2014-Sep-25 20:33N 48°01' W 122°19'3 3.6
2014-Sep-25 19:38N 47°60' W 122°15'1 9.8
2014-Sep-25 19:33N 47°59' W 122°14'1 1.2
2014-Sep-25 18:33N 48°00' W 122°13'1 1.2
2014-Sep-25 17:33N 47°59' W 122°14'4 4.0
2014-Sep-25 16:32N 48°01' W 122°19'2 2.2
2014-Sep-25 15:33N 48°00' W 122°17'031.7
2014-Sep-25 15:32N 48°00' W 122°17'2 1.9
2014-Sep-25 14:28N 48°00' W 122°13'0 0.0
2014-Sep-25 13:22N 48°00' W 122°13'0 0.0
2014-Sep-25 12:31N 48°00' W 122°13'0 0.0
2014-Sep-25 11:25N 48°00' W 122°13'0 0.0
2014-Sep-25 10:31N 48°00' W 122°13'0 0.0
2014-Sep-25 09:25N 48°00' W 122°13'0 0.0
2014-Sep-25 08:31N 48°00' W 122°13'0 0.0
2014-Sep-25 07:25N 48°00' W 122°13'0 0.0
2014-Sep-25 05:28N 48°00' W 122°13'0 0.0
2014-Sep-25 04:28N 48°00' W 122°13'0 0.0
2014-Sep-25 03:28N 48°00' W 122°13'0 0.0
2014-Sep-25 02:28N 48°00' W 122°13'0 0.0
2014-Sep-25 01:33N 48°00' W 122°13'1 1.3
2014-Sep-25 00:33N 47°59' W 122°15'3 4.0
2014-Sep-24 23:43N 48°01' W 122°19'0 0.0
2014-Sep-24 23:33N 48°01' W 122°19'4 4.1
2014-Sep-24 22:33N 48°00' W 122°13'4 4.1
2014-Sep-24 21:33N 48°01' W 122°19'0 0.0
2014-Sep-24 20:33N 48°01' W 122°19'2 1.8
2014-Sep-24 19:32N 48°00' W 122°17'2 2.5
2014-Sep-24 18:33N 48°00' W 122°13'4 3.5
2014-Sep-24 17:32N 48°01' W 122°19'0 0.5
2014-Sep-24 16:26N 48°01' W 122°19'3 3.5
2014-Sep-24 15:33N 47°60' W 122°15'1 1.4
2014-Sep-24 14:32N 48°00' W 122°13'0 0.0
2014-Sep-24 13:32N 48°00' W 122°13'0 0.0
2014-Sep-24 12:32N 48°00' W 122°13'0 0.0
2014-Sep-24 11:32N 48°00' W 122°13'0 0.0
2014-Sep-24 10:32N 48°00' W 122°13'0 0.0
2014-Sep-24 09:32N 48°00' W 122°13'0 0.0
2014-Sep-24 08:32N 48°00' W 122°13'0 0.0
2014-Sep-24 07:32N 48°00' W 122°13'0 0.0
2014-Sep-24 06:32N 48°00' W 122°13'0 0.0
2014-Sep-24 05:32N 48°00' W 122°13'5 4.2
2014-Sep-24 04:23N 48°02' W 122°20'8 8.6
2014-Sep-24 03:25N 48°07' W 122°30'10 8.2
2014-Sep-24 02:11N 48°17' W 122°31'5 7.3
2014-Sep-24 01:31N 48°22' W 122°33'6 5.5
2014-Sep-24 00:31N 48°27' W 122°31'6 5.8
2014-Sep-23 23:33N 48°31' W 122°36'0 0.0
2014-Sep-23 22:33N 48°31' W 122°36'0 0.0
2014-Sep-23 21:33N 48°31' W 122°36'3 2.6
2014-Sep-23 20:33N 48°32' W 122°40'8 8.3
2014-Sep-23 19:33N 48°34' W 122°52'6 5.7
2014-Sep-23 18:33N 48°32' W 122°60'0 0.0
2014-Sep-23 17:33N 48°32' W 122°60'3 2.6
2014-Sep-23 16:33N 48°32' W 122°56'7 7.0
2014-Sep-23 15:32N 48°32' W 122°46'6 5.9
2014-Sep-23 14:30N 48°31' W 122°36'0 0.0
2014-Sep-23 13:30N 48°31' W 122°36'0 0.0
2014-Sep-23 12:30N 48°31' W 122°36'0 0.0
2014-Sep-23 11:30N 48°31' W 122°36'0 0.0
2014-Sep-23 10:30N 48°31' W 122°36'0 0.0
2014-Sep-23 09:30N 48°31' W 122°36'0 0.0
2014-Sep-23 08:30N 48°31' W 122°36'0 0.0
2014-Sep-23 07:30N 48°31' W 122°36'0 0.0
2014-Sep-23 06:30N 48°31' W 122°36'0 0.0
2014-Sep-23 05:33N 48°31' W 122°36'0 0.0
2014-Sep-23 04:33N 48°31' W 122°36'0 0.0
2014-Sep-23 03:18N 48°31' W 122°36'0 0.0
2014-Sep-23 02:30N 48°31' W 122°36'0 0.0
2014-Sep-23 01:30N 48°31' W 122°36'0 0.0
2014-Sep-23 00:30N 48°31' W 122°36'0 0.0
2014-Sep-22 23:30N 48°31' W 122°36'0 0.0
2014-Sep-22 22:30N 48°31' W 122°36'1 0.6
2014-Sep-22 21:32N 48°31' W 122°36'1 0.6
2014-Sep-22 20:34N 48°31' W 122°36'6 6.1
2014-Sep-22 19:34N 48°33' W 122°45'3 3.3
2014-Sep-22 18:33N 48°35' W 122°49'0 0.0
2014-Sep-22 17:33N 48°35' W 122°49'0 0.3
2014-Sep-22 16:34N 48°35' W 122°49'5 5.4
2014-Sep-22 15:33N 48°32' W 122°43'4 3.7
2014-Sep-22 14:23N 48°31' W 122°36'0 0.0
2014-Sep-22 13:29N 48°31' W 122°36'0 0.0
2014-Sep-22 12:23N 48°31' W 122°36'0 0.0
2014-Sep-22 11:29N 48°31' W 122°36'0 0.0
2014-Sep-22 10:29N 48°31' W 122°36'0 0.0
2014-Sep-22 09:17N 48°31' W 122°36'0 0.0
2014-Sep-22 08:23N 48°31' W 122°36'0 0.0
2014-Sep-22 07:29N 48°31' W 122°36'0 0.0
2014-Sep-22 06:29N 48°31' W 122°36'0 0.0
2014-Sep-22 05:29N 48°31' W 122°36'0 0.0
2014-Sep-22 04:29N 48°31' W 122°36'0 0.0
2014-Sep-22 03:29N 48°31' W 122°36'0 0.0
2014-Sep-22 02:29N 48°31' W 122°36'0 0.0
2014-Sep-22 01:29N 48°31' W 122°36'0 0.0
2014-Sep-22 00:29N 48°31' W 122°36'0 0.0
2014-Sep-21 23:23N 48°31' W 122°36'0 0.0
2014-Sep-21 22:29N 48°31' W 122°36'0 0.0
2014-Sep-21 21:29N 48°31' W 122°36'0 0.0
2014-Sep-21 20:32N 48°31' W 122°36'0 0.0
2014-Sep-21 19:23N 48°31' W 122°36'0 0.0
2014-Sep-21 18:32N 48°31' W 122°36'0 0.0
2014-Sep-21 17:29N 48°31' W 122°36'0 0.0
2014-Sep-21 16:32N 48°31' W 122°36'0 0.0
2014-Sep-21 15:29N 48°31' W 122°36'0 0.0
2014-Sep-21 14:32N 48°31' W 122°36'0 0.0
2014-Sep-21 13:32N 48°31' W 122°36'0 0.0
2014-Sep-21 12:29N 48°31' W 122°36'0 0.0
2014-Sep-21 11:29N 48°31' W 122°36'0 0.0
2014-Sep-21 10:32N 48°31' W 122°36'0 0.0
2014-Sep-21 09:29N 48°31' W 122°36'0 0.0
2014-Sep-21 08:29N 48°31' W 122°36'0 0.0
2014-Sep-21 07:29N 48°31' W 122°36'0 0.0
2014-Sep-21 06:29N 48°31' W 122°36'0 0.0
2014-Sep-21 05:32N 48°31' W 122°36'0 0.0
2014-Sep-21 04:32N 48°31' W 122°36'0 0.0
2014-Sep-21 03:32N 48°31' W 122°36'0 0.0
2014-Sep-21 02:32N 48°31' W 122°36'0 0.0
2014-Sep-21 01:32N 48°31' W 122°36'0 0.0
2014-Sep-21 00:29N 48°31' W 122°36'  

Dump ship's entire track history